Time;durP1;ratioP1;P1;durP2;ratioP2;P2;SDS_P1;SDS_P2;PMS_P1;PMS_P2;Temp;Humidity;BMP_temperature;BMP_pressure;BME280_temperature;BME280_humidity;BME280_pressure;Samples;Min_cycle;Max_cycle;Signal;HPM_P1;HPM_P2
2021/09/25 00:00:40;;;;;;;6.47;4.40;;;;;;;;;;4995859;28;20036;-74
2021/09/25 00:03:06;;;;;;;8.25;4.45;;;;;;;;;;4996441;28;20054;-74
2021/09/25 00:05:36;;;;;;;11.32;4.60;;;;;;;;;;4993887;28;20050;-74
2021/09/25 00:08:03;;;;;;;7.90;4.65;;;;;;;;;;4993581;28;20523;-75
2021/09/25 00:10:29;;;;;;;6.13;4.38;;;;;;;;;;4994054;28;20411;-76
2021/09/25 00:12:56;;;;;;;5.88;4.30;;;;;;;;;;4995716;28;20088;-76
2021/09/25 00:15:22;;;;;;;6.20;4.47;;;;;;;;;;4991609;28;20034;-77
2021/09/25 00:17:48;;;;;;;5.72;4.35;;;;;;;;;;4977070;28;20519;-74
2021/09/25 00:20:15;;;;;;;6.07;4.40;;;;;;;;;;4994677;28;20034;-74
2021/09/25 00:22:41;;;;;;;6.47;4.60;;;;;;;;;;4994573;28;20030;-72
2021/09/25 00:25:08;;;;;;;4.90;4.25;;;;;;;;;;4994784;28;20563;-78
2021/09/25 00:27:36;;;;;;;7.18;4.47;;;;;;;;;;4993070;28;20034;-72
2021/09/25 00:30:03;;;;;;;5.15;4.40;;;;;;;;;;4994134;28;20522;-76
2021/09/25 00:32:30;;;;;;;8.63;4.30;;;;;;;;;;4995053;28;20046;-76
2021/09/25 00:34:56;;;;;;;6.47;4.15;;;;;;;;;;4994887;28;20106;-76
2021/09/25 00:37:22;;;;;;;6.85;4.25;;;;;;;;;;4994008;28;20042;-77
2021/09/25 00:39:48;;;;;;;6.07;4.57;;;;;;;;;;4994217;28;20029;-73
2021/09/25 00:42:14;;;;;;;5.65;4.15;;;;;;;;;;4994293;28;20026;-75
2021/09/25 00:44:40;;;;;;;7.57;4.40;;;;;;;;;;4993155;28;20030;-76
2021/09/25 00:47:06;;;;;;;6.43;4.35;;;;;;;;;;4993874;28;20034;-77
2021/09/25 00:49:32;;;;;;;7.45;4.55;;;;;;;;;;4992942;28;20057;-76
2021/09/25 00:51:58;;;;;;;5.70;4.30;;;;;;;;;;4993726;28;20030;-74
2021/09/25 00:54:24;;;;;;;7.50;4.75;;;;;;;;;;4995537;28;20022;-76
2021/09/25 00:56:51;;;;;;;7.43;4.20;;;;;;;;;;4995264;28;20077;-76
2021/09/25 00:59:19;;;;;;;7.60;4.60;;;;;;;;;;4994608;28;20034;-76
2021/09/25 01:01:45;;;;;;;5.45;4.55;;;;;;;;;;4997021;28;20068;-76
2021/09/25 01:04:14;;;;;;;5.20;4.15;;;;;;;;;;4995804;28;20033;-77
2021/09/25 01:06:40;;;;;;;5.60;4.53;;;;;;;;;;4993992;28;20081;-76
2021/09/25 01:09:06;;;;;;;5.18;4.35;;;;;;;;;;4994308;28;20342;-77
2021/09/25 01:11:32;;;;;;;5.55;4.22;;;;;;;;;;4993591;28;20105;-76
2021/09/25 01:13:59;;;;;;;5.55;3.95;;;;;;;;;;4993981;28;20468;-74
2021/09/25 01:16:25;;;;;;;5.82;4.50;;;;;;;;;;4995055;28;20937;-76
2021/09/25 01:18:51;;;;;;;5.88;4.45;;;;;;;;;;4993789;28;20106;-76
2021/09/25 01:21:19;;;;;;;6.18;4.35;;;;;;;;;;4992526;28;20492;-76
2021/09/25 01:23:45;;;;;;;7.07;4.13;;;;;;;;;;4988757;28;20027;-74
2021/09/25 01:26:12;;;;;;;6.53;4.85;;;;;;;;;;4993545;28;20118;-72
2021/09/25 01:28:39;;;;;;;4.35;3.95;;;;;;;;;;4994860;28;20027;-76
2021/09/25 01:31:05;;;;;;;4.60;4.00;;;;;;;;;;4993562;28;20030;-76
2021/09/25 01:33:33;;;;;;;4.60;4.10;;;;;;;;;;4993006;28;20077;-73
2021/09/25 01:35:59;;;;;;;5.53;4.35;;;;;;;;;;4984658;28;20510;-77
2021/09/25 01:38:25;;;;;;;5.78;4.10;;;;;;;;;;4993675;28;20034;-76
2021/09/25 01:40:52;;;;;;;5.90;4.05;;;;;;;;;;4992364;28;20033;-73
2021/09/25 01:43:18;;;;;;;4.63;4.10;;;;;;;;;;4994978;28;20020;-76
2021/09/25 01:45:45;;;;;;;6.13;4.10;;;;;;;;;;4993522;28;20534;-76
2021/09/25 01:48:12;;;;;;;5.90;4.40;;;;;;;;;;4995716;28;20061;-76
2021/09/25 01:50:38;;;;;;;5.22;4.40;;;;;;;;;;4994428;28;20480;-76
2021/09/25 01:53:04;;;;;;;5.78;4.35;;;;;;;;;;4994361;28;20173;-72
2021/09/25 01:55:30;;;;;;;6.43;4.13;;;;;;;;;;4994098;28;20126;-76
2021/09/25 01:57:56;;;;;;;6.28;4.00;;;;;;;;;;4989545;28;20033;-76
2021/09/25 02:00:24;;;;;;;5.15;4.22;;;;;;;;;;4993423;28;20037;-76
2021/09/25 02:02:51;;;;;;;4.82;4.10;;;;;;;;;;4993664;28;20018;-75
2021/09/25 02:05:17;;;;;;;5.05;4.30;;;;;;;;;;4993630;28;20097;-77
2021/09/25 02:07:44;;;;;;;5.57;4.50;;;;;;;;;;4991081;28;20082;-76
2021/09/25 02:10:11;;;;;;;4.95;4.30;;;;;;;;;;4993025;28;20018;-72
2021/09/25 02:12:38;;;;;;;5.78;4.25;;;;;;;;;;4991198;28;20030;-72
2021/09/25 02:15:05;;;;;;;7.35;4.25;;;;;;;;;;4991345;28;20675;-72
2021/09/25 02:17:31;;;;;;;5.05;4.30;;;;;;;;;;4990599;28;20030;-72
2021/09/25 02:19:58;;;;;;;8.43;4.20;;;;;;;;;;4993094;28;20026;-72
2021/09/25 02:22:24;;;;;;;5.55;4.88;;;;;;;;;;4992866;28;20065;-72
2021/09/25 02:24:50;;;;;;;9.38;4.70;;;;;;;;;;4992244;28;20614;-77
2021/09/25 02:27:16;;;;;;;4.65;3.85;;;;;;;;;;4992969;28;20161;-77
2021/09/25 02:29:42;;;;;;;5.70;4.25;;;;;;;;;;4992538;28;20026;-77
2021/09/25 02:32:09;;;;;;;5.97;4.38;;;;;;;;;;4993385;28;20092;-76
2021/09/25 02:34:35;;;;;;;6.43;4.10;;;;;;;;;;4984387;28;20026;-76
2021/09/25 02:37:01;;;;;;;4.55;4.07;;;;;;;;;;4992355;28;20102;-76
2021/09/25 02:39:28;;;;;;;7.72;4.00;;;;;;;;;;4987202;28;20027;-72
2021/09/25 02:41:54;;;;;;;4.90;3.90;;;;;;;;;;4987197;28;20023;-74
2021/09/25 02:44:22;;;;;;;7.35;3.90;;;;;;;;;;4990206;28;20027;-75
2021/09/25 02:46:48;;;;;;;4.80;3.95;;;;;;;;;;4990009;28;20050;-73
2021/09/25 02:49:15;;;;;;;6.32;4.15;;;;;;;;;;4983498;28;20022;-74
2021/09/25 02:51:41;;;;;;;8.98;4.20;;;;;;;;;;4994907;28;20073;-72
2021/09/25 02:54:08;;;;;;;6.97;4.40;;;;;;;;;;4995169;28;20042;-72
2021/09/25 02:56:34;;;;;;;4.90;4.28;;;;;;;;;;4993412;28;20026;-74
2021/09/25 02:59:00;;;;;;;6.60;4.60;;;;;;;;;;4995796;28;20026;-72
2021/09/25 03:01:26;;;;;;;4.93;4.20;;;;;;;;;;4995296;28;20042;-73
2021/09/25 03:03:54;;;;;;;5.20;4.18;;;;;;;;;;4993816;28;20022;-72
2021/09/25 03:06:24;;;;;;;5.10;3.92;;;;;;;;;;4976739;28;20053;-73
2021/09/25 03:08:50;;;;;;;6.28;4.50;;;;;;;;;;4994923;28;20030;-73
2021/09/25 03:11:16;;;;;;;7.60;4.22;;;;;;;;;;4993946;28;20057;-72
2021/09/25 03:13:42;;;;;;;5.30;4.30;;;;;;;;;;4995826;28;20406;-73
2021/09/25 03:16:09;;;;;;;5.38;4.28;;;;;;;;;;4995521;28;20034;-73
2021/09/25 03:18:35;;;;;;;5.00;4.30;;;;;;;;;;4995647;28;21484;-73
2021/09/25 03:21:01;;;;;;;6.35;4.55;;;;;;;;;;4989504;28;20029;-73
2021/09/25 03:23:27;;;;;;;5.53;4.70;;;;;;;;;;4994742;28;20022;-74
2021/09/25 03:25:53;;;;;;;6.68;4.43;;;;;;;;;;4995679;28;20121;-73
2021/09/25 03:28:20;;;;;;;5.95;4.28;;;;;;;;;;4995012;28;20077;-76
2021/09/25 03:30:46;;;;;;;6.18;4.40;;;;;;;;;;4994682;28;20022;-73
2021/09/25 03:33:12;;;;;;;6.50;4.55;;;;;;;;;;4995814;28;20026;-73
2021/09/25 03:35:42;;;;;;;5.15;4.30;;;;;;;;;;4995686;28;20037;-73
2021/09/25 03:38:08;;;;;;;5.22;4.65;;;;;;;;;;4977979;28;20029;-72
2021/09/25 03:40:34;;;;;;;6.90;4.60;;;;;;;;;;4994239;28;20037;-73
2021/09/25 03:43:00;;;;;;;8.63;4.55;;;;;;;;;;4995042;28;20030;-72
2021/09/25 03:45:26;;;;;;;6.32;4.50;;;;;;;;;;4996077;28;20193;-77
2021/09/25 03:47:58;;;;;;;6.72;4.85;;;;;;;;;;4996244;28;20080;-73
2021/09/25 03:50:25;;;;;;;7.22;4.75;;;;;;;;;;4994833;28;20030;-75
2021/09/25 03:52:51;;;;;;;7.57;4.93;;;;;;;;;;4995168;28;20054;-76
2021/09/25 03:55:17;;;;;;;6.47;4.80;;;;;;;;;;4992096;28;20057;-76
2021/09/25 03:57:43;;;;;;;6.78;4.85;;;;;;;;;;4994674;28;20018;-77
2021/09/25 04:00:09;;;;;;;7.50;4.82;;;;;;;;;;4995905;28;20034;-76
2021/09/25 04:02:35;;;;;;;5.45;4.70;;;;;;;;;;4995095;28;20026;-76
2021/09/25 04:05:01;;;;;;;5.28;4.72;;;;;;;;;;4994845;28;20026;-74
2021/09/25 04:07:27;;;;;;;5.80;4.82;;;;;;;;;;4994527;28;20073;-73
2021/09/25 04:09:53;;;;;;;6.80;4.97;;;;;;;;;;4994550;28;20034;-77
2021/09/25 04:12:20;;;;;;;7.43;5.18;;;;;;;;;;4994213;28;20027;-76
2021/09/25 04:14:46;;;;;;;5.75;4.57;;;;;;;;;;4995200;28;20036;-75
2021/09/25 04:17:12;;;;;;;7.28;4.80;;;;;;;;;;4994868;28;20030;-76
2021/09/25 04:19:38;;;;;;;6.05;4.80;;;;;;;;;;4985880;28;20020;-72
2021/09/25 04:22:04;;;;;;;5.07;4.35;;;;;;;;;;4976907;28;20054;-72
2021/09/25 04:24:30;;;;;;;6.07;4.90;;;;;;;;;;4993180;28;20022;-72
2021/09/25 04:26:56;;;;;;;6.00;5.00;;;;;;;;;;4994386;28;20072;-74
2021/09/25 04:29:22;;;;;;;6.70;5.10;;;;;;;;;;4993119;28;20025;-75
2021/09/25 04:31:48;;;;;;;8.70;4.90;;;;;;;;;;4991397;28;20023;-74
2021/09/25 04:34:16;;;;;;;9.93;4.82;;;;;;;;;;4987451;28;20033;-76
2021/09/25 04:36:42;;;;;;;5.88;4.82;;;;;;;;;;4992713;28;20038;-76
2021/09/25 04:39:09;;;;;;;7.28;5.20;;;;;;;;;;4993285;28;20056;-76
2021/09/25 04:41:37;;;;;;;6.70;5.10;;;;;;;;;;4994503;28;20084;-73
2021/09/25 04:44:03;;;;;;;7.13;5.30;;;;;;;;;;4993916;28;20396;-72
2021/09/25 04:46:29;;;;;;;6.03;5.10;;;;;;;;;;4992265;28;20038;-75
2021/09/25 04:48:55;;;;;;;6.55;4.60;;;;;;;;;;4994075;28;20058;-77
2021/09/25 04:51:21;;;;;;;7.60;4.93;;;;;;;;;;4994720;28;20022;-76
2021/09/25 04:53:48;;;;;;;7.20;4.70;;;;;;;;;;4994037;28;20062;-76
2021/09/25 04:56:14;;;;;;;6.50;4.97;;;;;;;;;;4993712;28;20022;-72
2021/09/25 04:58:40;;;;;;;7.18;5.40;;;;;;;;;;4993406;28;20022;-74
2021/09/25 05:01:06;;;;;;;11.55;5.35;;;;;;;;;;4993363;28;20061;-76
2021/09/25 05:03:33;;;;;;;8.02;5.40;;;;;;;;;;4996767;28;20076;-76
2021/09/25 05:06:00;;;;;;;10.60;5.30;;;;;;;;;;4993339;28;20038;-72
2021/09/25 05:08:26;;;;;;;8.48;5.57;;;;;;;;;;4993425;28;20393;-71
2021/09/25 05:10:53;;;;;;;8.55;5.45;;;;;;;;;;4992312;28;20030;-73
2021/09/25 05:13:19;;;;;;;8.93;5.35;;;;;;;;;;4989233;28;20066;-75
2021/09/25 05:15:45;;;;;;;8.93;5.38;;;;;;;;;;4991111;28;20571;-74
2021/09/25 05:18:11;;;;;;;10.20;5.57;;;;;;;;;;4986059;28;20639;-76
2021/09/25 05:20:37;;;;;;;11.90;6.30;;;;;;;;;;4989603;28;20027;-74
2021/09/25 05:23:03;;;;;;;9.38;6.07;;;;;;;;;;4987036;28;20022;-73
2021/09/25 05:25:29;;;;;;;8.45;6.13;;;;;;;;;;4991868;28;20568;-70
2021/09/25 05:27:55;;;;;;;7.43;5.53;;;;;;;;;;4985227;28;20372;-74
2021/09/25 05:30:21;;;;;;;7.07;5.60;;;;;;;;;;4985754;28;20034;-74
2021/09/25 05:32:48;;;;;;;7.97;5.00;;;;;;;;;;4993168;28;20042;-73
2021/09/25 05:35:14;;;;;;;9.02;5.90;;;;;;;;;;4993343;28;20081;-73
2021/09/25 05:37:41;;;;;;;5.70;4.95;;;;;;;;;;4983076;28;20444;-71
2021/09/25 05:40:07;;;;;;;6.15;5.15;;;;;;;;;;4991496;28;20092;-75
2021/09/25 05:42:33;;;;;;;8.43;5.07;;;;;;;;;;4991716;28;20419;-72
2021/09/25 05:44:59;;;;;;;6.10;5.05;;;;;;;;;;4991225;28;20014;-73
2021/09/25 05:47:26;;;;;;;9.75;5.22;;;;;;;;;;4992142;28;20034;-72
2021/09/25 05:49:52;;;;;;;8.05;5.30;;;;;;;;;;4987814;28;20026;-71
2021/09/25 05:52:19;;;;;;;8.43;5.47;;;;;;;;;;4987172;28;20030;-85
2021/09/25 05:54:46;;;;;;;9.73;5.30;;;;;;;;;;4991908;28;20026;-78
2021/09/25 05:57:13;;;;;;;9.13;4.90;;;;;;;;;;4991702;28;20113;-74
2021/09/25 05:59:39;;;;;;;9.18;5.60;;;;;;;;;;4991128;28;20050;-74
2021/09/25 06:02:05;;;;;;;16.27;5.28;;;;;;;;;;4985334;28;20027;-74
2021/09/25 06:04:33;;;;;;;8.95;4.97;;;;;;;;;;4988448;28;20038;-74
2021/09/25 06:06:59;;;;;;;7.35;4.63;;;;;;;;;;4989863;28;20046;-73
2021/09/25 06:09:25;;;;;;;8.80;4.85;;;;;;;;;;4988613;28;20214;-75
2021/09/25 06:11:51;;;;;;;10.60;6.40;;;;;;;;;;4987665;28;20034;-75
2021/09/25 06:14:18;;;;;;;14.73;9.20;;;;;;;;;;4990197;28;20033;-79
2021/09/25 06:16:44;;;;;;;15.70;8.57;;;;;;;;;;4991700;28;20086;-78
2021/09/25 06:19:11;;;;;;;12.65;7.47;;;;;;;;;;4978015;28;20034;-86
2021/09/25 06:21:37;;;;;;;13.07;7.28;;;;;;;;;;4991466;28;20117;-76
2021/09/25 06:24:05;;;;;;;11.32;6.85;;;;;;;;;;4972808;28;20022;-81
2021/09/25 06:26:31;;;;;;;11.25;6.82;;;;;;;;;;4973633;28;20042;-74
2021/09/25 06:28:59;;;;;;;8.32;6.00;;;;;;;;;;4990070;28;20025;-81
2021/09/25 06:31:25;;;;;;;8.07;5.68;;;;;;;;;;4973947;28;20042;-74
2021/09/25 06:33:51;;;;;;;8.00;5.78;;;;;;;;;;4991922;28;20018;-73
2021/09/25 06:36:17;;;;;;;8.15;5.20;;;;;;;;;;4992148;28;20037;-71
2021/09/25 06:38:43;;;;;;;10.07;5.15;;;;;;;;;;4991189;28;20061;-70
2021/09/25 06:41:09;;;;;;;8.05;5.30;;;;;;;;;;4991411;28;21414;-72
2021/09/25 06:43:35;;;;;;;7.63;4.88;;;;;;;;;;4992427;28;20057;-75
2021/09/25 06:46:01;;;;;;;10.00;5.28;;;;;;;;;;4990755;28;20081;-73
2021/09/25 06:48:27;;;;;;;10.05;5.40;;;;;;;;;;4988190;28;20027;-65
2021/09/25 06:50:54;;;;;;;12.52;4.72;;;;;;;;;;4991355;28;20042;-72
2021/09/25 06:53:20;;;;;;;8.45;5.07;;;;;;;;;;4991240;28;20101;-74
2021/09/25 06:55:46;;;;;;;7.75;4.53;;;;;;;;;;4991680;28;20037;-73
2021/09/25 06:58:12;;;;;;;5.13;4.15;;;;;;;;;;4992221;28;20019;-74
2021/09/25 07:00:39;;;;;;;7.07;4.20;;;;;;;;;;4992360;28;20049;-74
2021/09/25 07:03:05;;;;;;;5.13;4.57;;;;;;;;;;4992424;28;20018;-75
2021/09/25 07:05:31;;;;;;;10.02;3.97;;;;;;;;;;4992246;28;20128;-76
2021/09/25 07:07:57;;;;;;;7.07;4.75;;;;;;;;;;4974797;28;20121;-75
2021/09/25 07:10:23;;;;;;;6.35;4.45;;;;;;;;;;4992175;28;20025;-71
2021/09/25 07:12:49;;;;;;;7.95;4.10;;;;;;;;;;4991482;28;20243;-77
2021/09/25 07:15:15;;;;;;;11.02;4.40;;;;;;;;;;4992327;28;20034;-75
2021/09/25 07:17:41;;;;;;;8.85;4.63;;;;;;;;;;4992532;28;20023;-71
2021/09/25 07:20:08;;;;;;;6.65;4.07;;;;;;;;;;4988027;28;20026;-73
2021/09/25 07:22:34;;;;;;;10.50;4.50;;;;;;;;;;4991560;28;20369;-71
2021/09/25 07:25:01;;;;;;;6.75;4.38;;;;;;;;;;4989411;28;20026;-73
2021/09/25 07:27:27;;;;;;;7.25;4.60;;;;;;;;;;4990680;28;20031;-75
2021/09/25 07:29:53;;;;;;;10.65;5.03;;;;;;;;;;4991893;28;20357;-76
2021/09/25 07:32:20;;;;;;;7.57;4.30;;;;;;;;;;4991389;28;20069;-75
2021/09/25 07:34:46;;;;;;;8.63;4.30;;;;;;;;;;4991708;28;20105;-73
2021/09/25 07:37:12;;;;;;;8.15;4.10;;;;;;;;;;4992736;28;20041;-71
2021/09/25 07:39:39;;;;;;;10.38;4.13;;;;;;;;;;4995781;28;20030;-71
2021/09/25 07:42:05;;;;;;;6.80;4.18;;;;;;;;;;4993851;28;20753;-72
2021/09/25 07:44:32;;;;;;;8.75;4.00;;;;;;;;;;4995498;28;20173;-74
2021/09/25 07:46:58;;;;;;;7.03;4.90;;;;;;;;;;4995218;28;20388;-75
2021/09/25 07:49:24;;;;;;;5.90;4.47;;;;;;;;;;4995722;28;20015;-71
2021/09/25 07:51:50;;;;;;;6.43;4.40;;;;;;;;;;4995314;28;20026;-75
2021/09/25 07:54:18;;;;;;;7.40;4.10;;;;;;;;;;4994097;28;20476;-70
2021/09/25 07:56:44;;;;;;;7.45;4.93;;;;;;;;;;4995739;28;20177;-73
2021/09/25 08:02:16;;;;;;;8.48;4.00;;;;;;;;;;5266208;23;20064;-72
2021/09/25 08:04:42;;;;;;;7.70;4.20;;;;;;;;;;4983342;28;20029;-71
2021/09/25 08:07:08;;;;;;;6.28;4.00;;;;;;;;;;5012763;28;20041;-74
2021/09/25 08:09:34;;;;;;;7.40;3.88;;;;;;;;;;5013147;28;20026;-71
2021/09/25 08:12:00;;;;;;;7.38;4.10;;;;;;;;;;5013733;28;20076;-70
2021/09/25 08:14:26;;;;;;;9.98;4.10;;;;;;;;;;4996341;28;20475;-76
2021/09/25 08:16:52;;;;;;;7.85;3.50;;;;;;;;;;5014318;28;20029;-76
2021/09/25 08:19:18;;;;;;;6.93;3.90;;;;;;;;;;4991130;28;20030;-80
2021/09/25 08:21:44;;;;;;;4.40;3.42;;;;;;;;;;4995727;28;20037;-81
2021/09/25 08:24:10;;;;;;;5.75;3.35;;;;;;;;;;5013813;28;20076;-79
2021/09/25 08:26:36;;;;;;;6.43;3.63;;;;;;;;;;5013792;28;20034;-79
2021/09/25 08:29:04;;;;;;;6.18;3.63;;;;;;;;;;5013792;28;20541;-76
2021/09/25 08:31:30;;;;;;;5.32;3.65;;;;;;;;;;4995587;28;20033;-75
2021/09/25 08:33:56;;;;;;;4.35;3.20;;;;;;;;;;5013467;28;20022;-72
2021/09/25 08:36:22;;;;;;;6.30;3.22;;;;;;;;;;5013637;28;20022;-71
2021/09/25 08:38:48;;;;;;;7.22;3.45;;;;;;;;;;5013529;28;20061;-77
2021/09/25 08:41:15;;;;;;;6.05;3.13;;;;;;;;;;5013407;28;20515;-72
2021/09/25 08:43:41;;;;;;;10.38;3.85;;;;;;;;;;5005621;28;20502;-78
2021/09/25 08:46:08;;;;;;;6.97;4.00;;;;;;;;;;5013408;28;20041;-73
2021/09/25 08:48:38;;;;;;;9.75;3.90;;;;;;;;;;5012829;28;20018;-77
2021/09/25 08:51:04;;;;;;;8.70;3.75;;;;;;;;;;4995818;28;20113;-72
2021/09/25 08:53:30;;;;;;;9.90;3.60;;;;;;;;;;5010637;28;20356;-79
2021/09/25 08:55:56;;;;;;;7.88;3.40;;;;;;;;;;5010670;28;20034;-70
2021/09/25 08:58:22;;;;;;;5.82;3.70;;;;;;;;;;5012889;28;20093;-78
2021/09/25 09:00:49;;;;;;;8.10;3.63;;;;;;;;;;4985052;28;20427;-76
2021/09/25 09:03:19;;;;;;;9.45;3.80;;;;;;;;;;4996758;28;20057;-72
2021/09/25 09:05:45;;;;;;;6.75;4.10;;;;;;;;;;4984278;28;20428;-75
2021/09/25 09:08:12;;;;;;;6.78;3.58;;;;;;;;;;5002566;28;20053;-75
2021/09/25 09:10:38;;;;;;;7.72;3.60;;;;;;;;;;5001013;28;20074;-72
2021/09/25 09:13:05;;;;;;;4.75;3.40;;;;;;;;;;4983656;28;20030;-71
2021/09/25 09:15:35;;;;;;;7.97;3.60;;;;;;;;;;4980426;28;20118;-75
2021/09/25 09:18:01;;;;;;;7.47;3.80;;;;;;;;;;4984679;28;20057;-72
2021/09/25 09:20:35;;;;;;;5.93;3.50;;;;;;;;;;5002139;28;20021;-74
2021/09/25 09:23:20;;;;;;;6.22;3.45;;;;;;;;;;4997017;28;20170;-74
2021/09/25 09:25:46;;;;;;;10.43;3.72;;;;;;;;;;4991155;28;20030;-79
2021/09/25 09:28:23;;;;;;;8.80;3.72;;;;;;;;;;4995322;28;20038;-75
2021/09/25 09:30:51;;;;;;;8.38;3.60;;;;;;;;;;4993950;28;20121;-76
2021/09/25 09:33:28;;;;;;;7.90;3.40;;;;;;;;;;4990657;28;20030;-76
2021/09/25 09:35:54;;;;;;;6.75;3.78;;;;;;;;;;4985421;28;20030;-76
2021/09/25 09:38:24;;;;;;;6.22;3.55;;;;;;;;;;4991206;28;20541;-70
2021/09/25 09:40:52;;;;;;;7.68;3.42;;;;;;;;;;4989274;28;20038;-71
2021/09/25 09:43:18;;;;;;;6.07;3.88;;;;;;;;;;4985680;28;20114;-73
2021/09/25 09:45:46;;;;;;;7.03;4.10;;;;;;;;;;4994266;28;20044;-71
2021/09/25 09:48:12;;;;;;;6.43;4.10;;;;;;;;;;4979543;28;20496;-85
2021/09/25 09:50:39;;;;;;;5.38;4.05;;;;;;;;;;4997652;28;20041;-82
2021/09/25 09:53:14;;;;;;;8.10;3.95;;;;;;;;;;4974565;28;20022;-88
2021/09/25 09:55:40;;;;;;;8.45;4.50;;;;;;;;;;4988834;28;20036;-81
2021/09/25 09:58:07;;;;;;;4.78;3.90;;;;;;;;;;4972563;28;20026;-81
2021/09/25 10:00:34;;;;;;;5.35;4.03;;;;;;;;;;4992874;28;20057;-82
2021/09/25 10:03:01;;;;;;;5.63;3.40;;;;;;;;;;4994551;28;20050;-79
2021/09/25 10:05:27;;;;;;;5.30;3.60;;;;;;;;;;4987990;28;20089;-89
2021/09/25 10:07:53;;;;;;;4.28;3.55;;;;;;;;;;4996725;28;20036;-80
2021/09/25 10:10:20;;;;;;;5.93;3.83;;;;;;;;;;4992722;28;20428;-79
2021/09/25 10:12:47;;;;;;;6.28;3.75;;;;;;;;;;4995416;28;20097;-77
2021/09/25 10:15:18;;;;;;;4.63;3.35;;;;;;;;;;4998973;28;20026;-82
2021/09/25 10:20:32;;;;;;;6.55;3.90;;;;;;;;;;4989885;28;20125;-81
2021/09/25 10:22:59;;;;;;;7.13;4.00;;;;;;;;;;4992468;28;20496;-73
2021/09/25 10:25:25;;;;;;;6.25;3.55;;;;;;;;;;4991734;28;20029;-73
2021/09/25 10:27:51;;;;;;;4.88;3.58;;;;;;;;;;4988019;28;20035;-74
2021/09/25 10:30:33;;;;;;;6.22;3.55;;;;;;;;;;4993119;28;20062;-76
2021/09/25 10:33:12;;;;;;;4.60;3.60;;;;;;;;;;4988927;28;20066;-76
2021/09/25 10:35:39;;;;;;;4.70;3.45;;;;;;;;;;4995356;28;20022;-74
2021/09/25 10:38:05;;;;;;;8.68;3.97;;;;;;;;;;4994346;28;20027;-78
2021/09/25 10:40:33;;;;;;;8.38;3.75;;;;;;;;;;4994696;28;20092;-77
2021/09/25 10:43:00;;;;;;;5.53;3.65;;;;;;;;;;4991492;28;20026;-78
2021/09/25 10:45:29;;;;;;;5.35;3.67;;;;;;;;;;4988710;28;20031;-75
2021/09/25 10:48:07;;;;;;;8.48;3.90;;;;;;;;;;4989641;28;20467;-79
2021/09/25 10:50:40;;;;;;;42.72;11.50;;;;;;;;;;4991074;28;20022;-79
2021/09/25 10:53:06;;;;;;;7.30;4.32;;;;;;;;;;4989230;28;20026;-90
2021/09/25 10:55:32;;;;;;;14.48;5.15;;;;;;;;;;4990648;28;20034;-77
2021/09/25 10:58:17;;;;;;;11.48;4.28;;;;;;;;;;4999063;28;20061;-73
2021/09/25 11:00:50;;;;;;;5.10;3.50;;;;;;;;;;4982181;28;20479;-77
2021/09/25 11:03:39;;;;;;;9.75;4.32;;;;;;;;;;4992944;28;20085;-77
2021/09/25 11:06:06;;;;;;;13.80;4.20;;;;;;;;;;4930432;29;20107;-76
2021/09/25 11:08:32;;;;;;;7.82;3.60;;;;;;;;;;4928645;29;20130;-79
2021/09/25 11:11:06;;;;;;;6.47;3.90;;;;;;;;;;4929228;29;20375;-74
2021/09/25 11:13:32;;;;;;;;;;;;;;;;;;4929836;29;20040;-73
2021/09/25 11:16:03;;;;;;;6.50;4.05;;;;;;;;;;4938716;29;19922;-75
2021/09/25 11:18:30;;;;;;;8.55;3.67;;;;;;;;;;4936631;29;20034;-84
2021/09/25 11:21:03;;;;;;;6.47;3.45;;;;;;;;;;4919051;29;20055;-75
2021/09/25 11:23:44;;;;;;;4.78;4.05;;;;;;;;;;4919796;29;20439;-80
2021/09/25 11:26:10;;;;;;;5.72;4.00;;;;;;;;;;4929570;29;20038;-84
2021/09/25 11:28:36;;;;;;;4.82;3.67;;;;;;;;;;4936474;29;20070;-85
2021/09/25 11:31:08;;;;;;;8.85;4.05;;;;;;;;;;4914663;29;20032;-75
2021/09/25 11:33:36;;;;;;;6.20;3.78;;;;;;;;;;4921256;29;20086;-87
2021/09/25 11:36:10;;;;;;;5.85;3.78;;;;;;;;;;4920705;29;20036;-77
2021/09/25 11:38:36;;;;;;;;;;;;;;;;;;4919049;29;20175;-74
2021/09/25 11:41:04;;;;;;;7.57;3.95;;;;;;;;;;4930534;29;20343;-74
2021/09/25 11:43:33;;;;;;;6.10;3.50;;;;;;;;;;4966629;28;20175;-74
2021/09/25 11:45:59;;;;;;;9.65;4.07;;;;;;;;;;4996345;28;20476;-73
2021/09/25 11:48:29;;;;;;;6.05;3.65;;;;;;;;;;4972710;28;20421;-74
2021/09/25 11:50:56;;;;;;;4.90;3.53;;;;;;;;;;4997434;28;20536;-71
2021/09/25 11:53:23;;;;;;;11.55;9.00;;;;;;;;;;4992665;28;20038;-75
2021/09/25 11:55:50;;;;;;;10.45;3.90;;;;;;;;;;4990181;28;20026;-72
2021/09/25 11:58:20;;;;;;;6.45;4.25;;;;;;;;;;4989209;28;20023;-74
2021/09/25 12:00:51;;;;;;;7.07;3.83;;;;;;;;;;4989767;28;20018;-76
2021/09/25 12:03:19;;;;;;;5.30;3.72;;;;;;;;;;4991069;28;20069;-73
2021/09/25 12:05:47;;;;;;;7.05;3.75;;;;;;;;;;4993971;28;20042;-72
2021/09/25 12:08:17;;;;;;;5.10;3.30;;;;;;;;;;4990487;28;20061;-74
2021/09/25 12:10:46;;;;;;;7.85;3.88;;;;;;;;;;4993600;28;20106;-78
2021/09/25 12:13:24;;;;;;;6.25;3.40;;;;;;;;;;4998570;28;20022;-72
2021/09/25 12:15:52;;;;;;;6.93;4.03;;;;;;;;;;4987552;28;20065;-75
2021/09/25 12:18:24;;;;;;;5.63;3.90;;;;;;;;;;4999566;28;20030;-74
2021/09/25 12:21:00;;;;;;;8.23;3.80;;;;;;;;;;4993976;28;20039;-73
2021/09/25 12:23:26;;;;;;;4.85;3.63;;;;;;;;;;4997347;28;20022;-74
2021/09/25 12:25:52;;;;;;;7.07;3.63;;;;;;;;;;4994807;28;20065;-71
2021/09/25 12:28:31;;;;;;;5.97;3.50;;;;;;;;;;4997178;28;20053;-77
2021/09/25 12:30:58;;;;;;;6.80;3.80;;;;;;;;;;4994137;28;20068;-74
2021/09/25 12:33:24;;;;;;;8.35;3.97;;;;;;;;;;5000240;28;20034;-71
2021/09/25 12:35:55;;;;;;;5.75;3.72;;;;;;;;;;4993499;28;20497;-72
2021/09/25 12:38:22;;;;;;;5.05;3.58;;;;;;;;;;5000710;28;20033;-73
2021/09/25 12:40:48;;;;;;;4.53;3.80;;;;;;;;;;4993493;28;20023;-73
2021/09/25 12:43:15;;;;;;;5.97;3.83;;;;;;;;;;4995891;28;20035;-72
2021/09/25 12:45:41;;;;;;;5.85;3.58;;;;;;;;;;4995655;28;20042;-72
2021/09/25 12:48:17;;;;;;;8.73;4.00;;;;;;;;;;4993766;28;20034;-72
2021/09/25 12:50:49;;;;;;;7.20;3.80;;;;;;;;;;4996792;28;20121;-77
2021/09/25 12:53:16;;;;;;;5.07;3.67;;;;;;;;;;4993629;28;20065;-74
2021/09/25 12:55:42;;;;;;;6.68;4.15;;;;;;;;;;4988381;28;20035;-74
2021/09/25 12:58:10;;;;;;;5.18;3.50;;;;;;;;;;5003004;28;20026;-81
2021/09/25 13:00:36;;;;;;;6.68;4.05;;;;;;;;;;4992211;28;20500;-78
2021/09/25 13:03:02;;;;;;;4.68;3.53;;;;;;;;;;4992599;28;20069;-83
2021/09/25 13:05:30;;;;;;;10.02;4.18;;;;;;;;;;5004492;28;20088;-83
2021/09/25 13:07:57;;;;;;;7.55;4.88;;;;;;;;;;4988856;28;20048;-90
2021/09/25 13:10:24;;;;;;;6.50;3.30;;;;;;;;;;4996265;28;20023;-87
2021/09/25 13:12:51;;;;;;;8.68;3.38;;;;;;;;;;4993732;28;20041;-90
2021/09/25 13:15:20;;;;;;;5.97;3.63;;;;;;;;;;4993532;28;20029;-86
2021/09/25 13:17:48;;;;;;;5.82;3.65;;;;;;;;;;4978282;28;20515;-86
2021/09/25 13:20:19;;;;;;;5.03;3.47;;;;;;;;;;4997048;28;20025;-89
2021/09/25 13:22:46;;;;;;;5.50;3.80;;;;;;;;;;4999657;28;20033;-82
2021/09/25 13:25:12;;;;;;;5.82;3.78;;;;;;;;;;4988170;28;20014;-87
2021/09/25 13:27:38;;;;;;;6.35;4.10;;;;;;;;;;4976469;28;20038;-88
2021/09/25 13:30:05;;;;;;;5.55;3.85;;;;;;;;;;5000005;28;20503;-90
2021/09/25 13:32:32;;;;;;;4.93;3.60;;;;;;;;;;4993701;28;20034;-86
2021/09/25 13:34:58;;;;;;;10.55;3.85;;;;;;;;;;4990295;28;20046;-86
2021/09/25 13:37:27;;;;;;;5.50;3.83;;;;;;;;;;4995846;28;20384;-87
2021/09/25 13:39:54;;;;;;;5.35;3.47;;;;;;;;;;4995442;28;20052;-88
2021/09/25 13:42:20;;;;;;;7.95;3.92;;;;;;;;;;4996028;28;20026;-82
2021/09/25 13:44:47;;;;;;;6.07;3.70;;;;;;;;;;4988531;28;20018;-88
2021/09/25 13:47:13;;;;;;;6.80;3.65;;;;;;;;;;4990690;28;20598;-75
2021/09/25 13:49:40;;;;;;;5.20;3.83;;;;;;;;;;5002376;28;20030;-77
2021/09/25 13:52:07;;;;;;;6.20;3.47;;;;;;;;;;4997271;28;20026;-89
2021/09/25 13:54:33;;;;;;;6.18;3.88;;;;;;;;;;4987939;28;20042;-88
2021/09/25 13:56:59;;;;;;;4.50;3.78;;;;;;;;;;4984995;28;20023;-76
2021/09/25 13:59:28;;;;;;;5.88;3.60;;;;;;;;;;5003621;28;20040;-86
2021/09/25 14:01:54;;;;;;;8.18;3.80;;;;;;;;;;5007953;28;20097;-75
2021/09/25 14:04:20;;;;;;;5.55;3.75;;;;;;;;;;4995238;28;20024;-76
2021/09/25 14:06:46;;;;;;;5.03;3.67;;;;;;;;;;4992715;28;20081;-90
2021/09/25 14:09:12;;;;;;;4.10;3.45;;;;;;;;;;4998953;28;20026;-88
2021/09/25 14:11:38;;;;;;;8.60;4.50;;;;;;;;;;4990696;28;20114;-88
2021/09/25 14:14:04;;;;;;;4.85;3.70;;;;;;;;;;4990150;28;20030;-88
2021/09/25 14:16:30;;;;;;;7.43;3.80;;;;;;;;;;4999843;28;20087;-87
2021/09/25 14:18:58;;;;;;;5.28;3.83;;;;;;;;;;4990658;28;20023;-88
2021/09/25 14:21:24;;;;;;;5.03;3.47;;;;;;;;;;5001312;28;20019;-88
2021/09/25 14:23:51;;;;;;;7.10;3.65;;;;;;;;;;5001446;28;20038;-89
2021/09/25 14:26:17;;;;;;;5.55;3.80;;;;;;;;;;4998094;28;20125;-88
2021/09/25 14:28:45;;;;;;;6.53;3.83;;;;;;;;;;4992815;28;20033;-88
2021/09/25 14:31:11;;;;;;;8.48;3.90;;;;;;;;;;4997268;28;20150;-72
2021/09/25 14:33:37;;;;;;;6.05;4.07;;;;;;;;;;4993970;28;20027;-90
2021/09/25 14:36:04;;;;;;;5.45;3.63;;;;;;;;;;4995828;28;20022;-90
2021/09/25 14:38:30;;;;;;;5.00;3.80;;;;;;;;;;4993033;28;20395;-85
2021/09/25 14:40:56;;;;;;;4.30;3.50;;;;;;;;;;4995468;28;20037;-81
2021/09/25 14:43:23;;;;;;;6.30;3.60;;;;;;;;;;4996125;28;20025;-91
2021/09/25 14:45:51;;;;;;;6.45;3.83;;;;;;;;;;4995049;28;20042;-91
2021/09/25 14:48:17;;;;;;;10.43;4.28;;;;;;;;;;4997615;28;20497;-87